createdAt,value
2022-09-12T00:01:15.371Z,92935.59
2022-09-12T00:03:42.025Z,92929.25
2022-09-12T00:06:29.091Z,92922.41
2022-09-12T00:08:58.543Z,92919.28
2022-09-12T00:11:26.006Z,92918.00
2022-09-12T00:13:56.818Z,92918.00
2022-09-12T00:16:25.585Z,92916.91
2022-09-12T00:18:53.258Z,92919.22
2022-09-12T00:21:21.881Z,92915.50
2022-09-12T00:23:48.998Z,92922.59
2022-09-12T00:26:15.586Z,92925.97
2022-09-12T00:28:42.518Z,92915.47
2022-09-12T00:31:12.689Z,92920.19
2022-09-12T00:33:39.783Z,92910.19
2022-09-12T00:36:10.634Z,92917.50
2022-09-12T00:38:38.752Z,92919.88
2022-09-12T00:41:06.401Z,92913.03
2022-09-12T00:43:42.008Z,92913.53
2022-09-12T00:46:21.793Z,92910.38
2022-09-12T00:48:56.485Z,92915.38
2022-09-12T00:51:23.461Z,92904.09
2022-09-12T00:53:53.618Z,92901.47
2022-09-12T00:56:21.765Z,92903.56
2022-09-12T00:59:02.328Z,92909.31
2022-09-12T01:01:32.361Z,92899.31
2022-09-12T01:04:00.238Z,92905.06
2022-09-12T01:06:35.918Z,92900.84
2022-09-12T01:09:04.843Z,92897.97
2022-09-12T01:11:37.027Z,92895.06
2022-09-12T01:14:06.056Z,92899.25
2022-09-12T01:16:36.099Z,92892.16
2022-09-12T01:19:21.965Z,92899.50
2022-09-12T01:22:13.516Z,92896.59
2022-09-12T01:24:51.740Z,92896.09
2022-09-12T01:27:33.738Z,92894.22
2022-09-12T01:30:37.400Z,92891.84
2022-09-12T01:33:18.898Z,92883.97
2022-09-12T01:35:54.452Z,92886.53
2022-09-12T01:38:47.327Z,92880.47
2022-09-12T01:41:40.198Z,92875.00
2022-09-12T01:44:12.939Z,92870.25
2022-09-12T01:47:09.355Z,92862.09
2022-09-12T01:49:48.411Z,92854.50
2022-09-12T01:52:41.317Z,92856.06
2022-09-12T01:55:21.629Z,92857.06
2022-09-12T01:58:09.785Z,92856.28
2022-09-12T02:00:44.562Z,92862.50
2022-09-12T02:03:17.098Z,92863.00
2022-09-12T02:05:56.229Z,92863.75
2022-09-12T02:08:28.645Z,92851.44
2022-09-12T02:11:00.267Z,92855.13
2022-09-12T02:13:39.254Z,92851.44
2022-09-12T02:16:10.783Z,92847.34
2022-09-12T02:18:45.264Z,92849.66
2022-09-12T02:21:12.867Z,92839.38
2022-09-12T02:23:46.192Z,92844.53
2022-09-12T02:26:21.150Z,92835.09
2022-09-12T02:28:48.980Z,92840.84
2022-09-12T02:31:37.551Z,92841.03
2022-09-12T02:34:20.241Z,92840.78
2022-09-12T02:37:03.715Z,92833.94
2022-09-12T02:39:30.274Z,92833.19
2022-09-12T02:41:59.221Z,92833.19
2022-09-12T02:44:28.138Z,92837.34
2022-09-12T02:47:01.162Z,92831.59
2022-09-12T02:49:27.781Z,92833.44
2022-09-12T02:51:55.023Z,92827.66
2022-09-12T02:54:21.788Z,92821.13
2022-09-12T03:00:45.380Z,92823.13
2022-09-12T03:04:05.873Z,92827.06
2022-09-12T03:06:42.225Z,92827.34
2022-09-12T03:09:27.242Z,92823.13
2022-09-12T03:12:18.730Z,92822.03
2022-09-12T03:15:01.663Z,92826.69
2022-09-12T03:18:01.843Z,92829.53
2022-09-12T03:21:01.848Z,92830.31
2022-09-12T03:23:38.431Z,92821.41
2022-09-12T03:26:19.849Z,92829.31
2022-09-12T03:28:48.037Z,92829.59
2022-09-12T03:31:17.197Z,92834.00
2022-09-12T03:33:44.061Z,92831.63
2022-09-12T03:36:22.697Z,92827.69
2022-09-12T03:38:49.313Z,92826.34
2022-09-12T03:41:15.837Z,92819.47
2022-09-12T03:43:43.178Z,92826.81
2022-09-12T03:46:09.716Z,92829.69
2022-09-12T03:48:36.298Z,92830.50
2022-09-12T03:51:08.440Z,92829.47
2022-09-12T03:53:35.202Z,92828.63
2022-09-12T03:56:07.621Z,92827.56
2022-09-12T03:58:35.797Z,92830.47
2022-09-12T04:01:12.625Z,92831.22
2022-09-12T04:03:43.362Z,92829.69
2022-09-12T04:06:11.442Z,92827.06
2022-09-12T04:08:38.562Z,92825.25
2022-09-12T04:11:15.435Z,92830.72
2022-09-12T04:13:43.859Z,92828.13
2022-09-12T04:16:11.756Z,92826.50
2022-09-12T04:18:38.320Z,92824.09
2022-09-12T04:21:11.584Z,92823.00
2022-09-12T04:23:38.438Z,92823.81
2022-09-12T04:26:07.556Z,92828.72
2022-09-12T04:28:35.750Z,92820.06
2022-09-12T04:31:15.634Z,92822.94
2022-09-12T04:33:42.339Z,92825.88
2022-09-12T04:36:11.906Z,92834.97
2022-09-12T04:38:39.033Z,92827.84
2022-09-12T04:41:18.485Z,92833.59
2022-09-12T04:43:49.056Z,92828.41
2022-09-12T04:46:19.755Z,92826.34
2022-09-12T04:48:47.090Z,92824.00
2022-09-12T04:51:44.222Z,92820.56
2022-09-12T04:54:19.433Z,92829.91
2022-09-12T04:56:48.934Z,92819.94
2022-09-12T04:59:17.933Z,92821.50
2022-09-12T05:01:44.546Z,92819.66
2022-09-12T05:04:13.028Z,92822.06
2022-09-12T05:06:40.963Z,92821.44
2022-09-12T05:09:11.256Z,92824.53
2022-09-12T05:12:03.837Z,92825.09
2022-09-12T05:14:26.758Z,92813.59
2022-09-12T05:16:53.367Z,92814.16
2022-09-12T05:19:19.926Z,92820.41
2022-09-12T05:21:46.483Z,92824.06
2022-09-12T05:24:13.074Z,92824.06
2022-09-12T05:26:39.617Z,92823.59
2022-09-12T05:29:07.134Z,92823.28
2022-09-12T05:31:34.674Z,92826.66
2022-09-12T05:34:01.281Z,92825.72
2022-09-12T05:36:30.395Z,92828.13
2022-09-12T05:38:57.491Z,92832.06
2022-09-12T05:41:32.932Z,92833.66
2022-09-12T05:44:02.439Z,92832.03
2022-09-12T05:46:31.553Z,92835.69
2022-09-12T05:49:03.907Z,92835.72
2022-09-12T05:51:34.791Z,92836.03
2022-09-12T05:54:05.870Z,92843.59
2022-09-12T05:56:34.569Z,92841.28
2022-09-12T05:59:08.259Z,92838.72
2022-09-12T06:01:35.870Z,92844.47
2022-09-12T06:04:04.958Z,92841.47
2022-09-12T06:06:32.948Z,92840.28
2022-09-12T06:09:01.833Z,92838.97
2022-09-12T06:11:30.689Z,92839.78
2022-09-12T06:13:58.594Z,92842.41
2022-09-12T06:16:28.214Z,92838.75
2022-09-12T06:18:57.232Z,92837.19
2022-09-12T06:21:26.497Z,92830.50
2022-09-12T06:23:55.849Z,92832.41
2022-09-12T06:26:25.471Z,92820.16
2022-09-12T06:28:53.951Z,92824.56
2022-09-12T06:31:26.402Z,92828.81
2022-09-12T06:33:54.201Z,92830.69
2022-09-12T06:36:22.737Z,92829.19
2022-09-12T06:38:57.806Z,92830.31
2022-09-12T06:41:25.464Z,92835.03
2022-09-12T06:43:52.221Z,92829.84
2022-09-12T06:46:19.096Z,92821.50
2022-09-12T06:48:45.870Z,92812.13
2022-09-12T06:51:15.233Z,92820.34
2022-09-12T06:53:42.639Z,92811.44
2022-09-12T06:56:21.697Z,92817.53
2022-09-12T06:58:50.466Z,92817.59
2022-09-12T07:01:28.284Z,92827.56
2022-09-12T07:03:57.253Z,92828.41
2022-09-12T07:06:29.770Z,92826.06
2022-09-12T07:08:58.342Z,92827.69
2022-09-12T07:11:27.028Z,92822.75
2022-09-12T07:13:56.339Z,92819.91
2022-09-12T07:16:23.017Z,92815.16
2022-09-12T07:18:54.447Z,92823.09
2022-09-12T07:21:21.048Z,92819.69
2022-09-12T07:23:48.225Z,92812.06
2022-09-12T07:26:16.209Z,92814.69
2022-09-12T07:28:43.021Z,92806.81
2022-09-12T07:31:16.064Z,92809.44
2022-09-12T07:33:43.661Z,92812.81
2022-09-12T07:36:16.218Z,92814.38
2022-09-12T07:38:43.991Z,92804.59
2022-09-12T07:41:21.566Z,92809.28
2022-09-12T07:43:48.424Z,92817.41
2022-09-12T07:46:15.070Z,92808.19
2022-09-12T07:48:41.704Z,92813.38
2022-09-12T07:51:11.357Z,92814.13
2022-09-12T07:53:40.852Z,92815.38
2022-09-12T07:56:10.382Z,92818.97
2022-09-12T07:58:38.526Z,92807.81
2022-09-12T08:01:13.621Z,92812.50
2022-09-12T08:03:42.101Z,92809.50
2022-09-12T08:06:15.388Z,92814.97
2022-09-12T08:08:43.035Z,92822.78
2022-09-12T08:11:12.217Z,92823.78
2022-09-12T08:13:40.478Z,92817.16
2022-09-12T08:16:12.055Z,92825.47
2022-09-12T08:18:39.205Z,92817.22
2022-09-12T08:21:12.439Z,92821.34
2022-09-12T08:23:38.938Z,92814.66
2022-09-12T08:26:06.451Z,92818.75
2022-09-12T08:28:35.434Z,92820.00
2022-09-12T08:31:04.035Z,92824.69
2022-09-12T08:33:34.471Z,92830.91
2022-09-12T08:36:05.600Z,92821.31
2022-09-12T08:38:33.235Z,92827.84
2022-09-12T08:41:17.878Z,92828.31
2022-09-12T08:44:06.971Z,92827.38
2022-09-12T08:46:51.789Z,92830.97
2022-09-12T08:49:31.063Z,92827.72
2022-09-12T08:52:00.601Z,92830.28
2022-09-12T08:54:29.728Z,92830.22
2022-09-12T08:57:02.857Z,92820.56
2022-09-12T08:59:41.132Z,92823.34
2022-09-12T09:02:42.120Z,92821.63
2022-09-12T09:05:30.015Z,92828.34
2022-09-12T09:08:08.867Z,92830.91
2022-09-12T09:10:46.389Z,92833.69
2022-09-12T09:13:56.150Z,92840.47
2022-09-12T09:16:30.912Z,92830.69
2022-09-12T09:19:01.323Z,92827.38
2022-09-12T09:21:50.580Z,92823.56
2022-09-12T09:24:22.035Z,92822.91
2022-09-12T09:26:55.069Z,92829.69
2022-09-12T09:29:26.926Z,92820.88
2022-09-12T09:31:57.838Z,92823.44
2022-09-12T09:34:34.425Z,92818.75
2022-09-12T09:37:34.206Z,92807.16
2022-09-12T09:40:15.648Z,92811.47
2022-09-12T09:42:53.942Z,92805.00
2022-09-12T09:45:24.319Z,92822.06
2022-09-12T09:48:04.955Z,92815.28
2022-09-12T09:50:31.783Z,92818.31
2022-09-12T09:53:00.084Z,92808.09
2022-09-12T09:55:34.434Z,92811.13
2022-09-12T09:58:00.903Z,92808.28
2022-09-12T10:00:30.671Z,92810.41
2022-09-12T10:03:02.967Z,92805.84
2022-09-12T10:05:31.354Z,92805.91
2022-09-12T10:07:58.444Z,92799.75
2022-09-12T10:10:25.530Z,92810.63
2022-09-12T10:13:07.386Z,92798.22
2022-09-12T10:15:34.773Z,92799.72
2022-09-12T10:18:03.120Z,92799.31
2022-09-12T10:20:31.447Z,92799.59
2022-09-12T10:23:07.322Z,92799.66
2022-09-12T10:25:33.751Z,92799.53
2022-09-12T10:28:01.088Z,92800.50
2022-09-12T10:30:28.587Z,92797.53
2022-09-12T10:33:07.511Z,92802.25
2022-09-12T10:35:46.030Z,92793.19
2022-09-12T10:38:21.343Z,92803.06
2022-09-12T10:40:57.836Z,92799.81
2022-09-12T10:43:29.707Z,92792.41
2022-09-12T10:46:19.288Z,92792.25
2022-09-12T10:48:47.399Z,92803.63
2022-09-12T10:51:28.806Z,92803.91
2022-09-12T10:53:59.304Z,92804.06
2022-09-12T10:56:32.624Z,92815.34
2022-09-12T10:59:20.602Z,92808.25
2022-09-12T11:02:15.101Z,92798.50
2022-09-12T11:04:44.238Z,92798.34
2022-09-12T11:07:29.568Z,92794.00
2022-09-12T11:10:21.183Z,92793.00
2022-09-12T11:13:00.214Z,92800.19
2022-09-12T11:15:44.637Z,92795.56
2022-09-12T11:18:23.439Z,92792.53
2022-09-12T11:21:02.921Z,92785.47
2022-09-12T11:24:01.554Z,92781.28
2022-09-12T11:27:10.790Z,92784.47
2022-09-12T11:29:49.006Z,92786.56
2022-09-12T11:32:40.818Z,92776.00
2022-09-12T11:35:28.781Z,92779.72
2022-09-12T11:38:22.123Z,92774.69
2022-09-12T11:40:55.909Z,92776.59
2022-09-12T11:43:34.236Z,92768.22
2022-09-12T11:46:18.420Z,92762.78
2022-09-12T11:48:54.690Z,92762.47
2022-09-12T11:51:28.268Z,92753.09
2022-09-12T11:54:02.683Z,92756.69
2022-09-12T11:56:29.157Z,92759.38
2022-09-12T11:59:04.503Z,92752.03
2022-09-12T12:01:45.074Z,92751.91
2022-09-12T12:04:17.852Z,92749.81
2022-09-12T12:06:53.903Z,92745.78
2022-09-12T12:09:20.793Z,92751.69
2022-09-12T12:11:57.638Z,92742.78
2022-09-12T12:14:31.096Z,92749.78
2022-09-12T12:16:57.931Z,92741.53
2022-09-12T12:19:36.141Z,92748.09
2022-09-12T12:22:17.043Z,92738.59
2022-09-12T12:25:08.743Z,92741.47
2022-09-12T12:27:44.691Z,92745.91
2022-09-12T12:30:29.385Z,92739.06
2022-09-12T12:33:06.969Z,92738.53
2022-09-12T12:36:04.698Z,92739.56
2022-09-12T12:38:32.401Z,92739.06
2022-09-12T12:41:16.980Z,92743.91
2022-09-12T12:43:52.216Z,92740.38
2022-09-12T12:46:21.303Z,92737.63
2022-09-12T12:48:50.619Z,92730.97
2022-09-12T12:51:29.595Z,92728.03
2022-09-12T12:53:56.159Z,92733.34
2022-09-12T12:56:34.774Z,92724.31
2022-09-12T12:59:17.039Z,92724.66
2022-09-12T13:01:58.779Z,92721.53
2022-09-12T13:04:29.990Z,92717.41
2022-09-12T13:07:08.748Z,92715.19
2022-09-12T13:09:45.924Z,92704.06
2022-09-12T13:12:21.630Z,92714.00
2022-09-12T13:14:50.250Z,92706.97
2022-09-12T13:17:39.757Z,92704.78
2022-09-12T13:20:30.424Z,92703.88
2022-09-12T13:22:58.120Z,92703.28
2022-09-12T13:25:32.087Z,92695.09
2022-09-12T13:28:01.164Z,92703.06
2022-09-12T13:30:31.449Z,92702.72
2022-09-12T13:33:02.672Z,92701.44
2022-09-12T13:35:42.949Z,92686.97
2022-09-12T13:38:43.695Z,92690.91
2022-09-12T13:41:39.243Z,92690.19
2022-09-12T13:44:10.690Z,92692.84
2022-09-12T13:46:37.878Z,92679.91
2022-09-12T13:49:30.171Z,92693.19
2022-09-12T13:52:21.326Z,92681.28
2022-09-12T13:54:53.094Z,92681.06
2022-09-12T13:57:41.356Z,92681.03
2022-09-12T14:00:19.577Z,92682.31
2022-09-12T14:02:47.628Z,92672.34
2022-09-12T14:05:26.239Z,92667.31
2022-09-12T14:08:04.103Z,92663.38
2022-09-12T14:10:50.399Z,92664.03
2022-09-12T14:13:21.109Z,92660.41
2022-09-12T14:15:50.259Z,92658.13
2022-09-12T14:18:45.537Z,92660.66
2022-09-12T14:21:23.340Z,92659.63
2022-09-12T14:23:49.954Z,92664.03
2022-09-12T14:26:17.793Z,92662.50
2022-09-12T14:28:49.325Z,92657.25
2022-09-12T14:31:30.570Z,92651.59
2022-09-12T14:34:18.209Z,92657.88
2022-09-12T14:36:49.221Z,92652.69
2022-09-12T14:39:22.457Z,92652.13
2022-09-12T14:41:49.926Z,92651.47
2022-09-12T14:44:20.993Z,92643.81
2022-09-12T14:46:48.644Z,92651.59
2022-09-12T14:49:27.663Z,92645.06
2022-09-12T14:51:57.157Z,92642.47
2022-09-12T14:54:30.225Z,92644.13
2022-09-12T14:56:59.458Z,92641.81
2022-09-12T14:59:35.291Z,92641.09
2022-09-12T15:02:14.259Z,92637.31
2022-09-12T15:04:43.695Z,92636.59
2022-09-12T15:07:24.326Z,92640.13
2022-09-12T15:09:51.042Z,92635.44
2022-09-12T15:12:17.535Z,92638.16
2022-09-12T15:14:44.035Z,92640.50
2022-09-12T15:17:10.530Z,92638.22
2022-09-12T15:19:37.017Z,92639.81
2022-09-12T15:22:03.579Z,92639.41
2022-09-12T15:24:30.068Z,92637.09
2022-09-12T15:26:56.794Z,92642.53
2022-09-12T15:29:23.285Z,92647.19
2022-09-12T15:31:51.230Z,92644.47
2022-09-12T15:34:17.708Z,92642.94
2022-09-12T15:36:44.189Z,92635.59
2022-09-12T15:39:10.666Z,92640.22
2022-09-12T15:41:38.208Z,92645.28
2022-09-12T15:44:12.235Z,92641.41
2022-09-12T15:46:39.383Z,92640.22
2022-09-12T15:49:07.015Z,92630.16
2022-09-12T15:51:33.591Z,92630.16
2022-09-12T15:54:02.229Z,92626.69
2022-09-12T15:56:28.689Z,92623.59
2022-09-12T15:58:59.181Z,92621.25
2022-09-12T16:01:27.692Z,92631.72
2022-09-12T16:03:54.357Z,92633.28
2022-09-12T16:06:20.940Z,92621.28
2022-09-12T16:08:47.581Z,92619.72
2022-09-12T16:11:21.158Z,92618.19
2022-09-12T16:13:48.525Z,92620.50
2022-09-12T16:16:15.127Z,92613.75
2022-09-12T16:18:41.931Z,92617.19
2022-09-12T16:21:14.047Z,92612.44
2022-09-12T16:23:45.635Z,92605.16
2022-09-12T16:26:12.614Z,92610.59
2022-09-12T16:28:39.532Z,92603.03
2022-09-12T16:31:08.425Z,92605.97
2022-09-12T16:33:35.125Z,92601.47
2022-09-12T16:36:21.981Z,92604.00
2022-09-12T16:38:51.200Z,92600.16
2022-09-12T16:41:19.946Z,92607.53
2022-09-12T16:43:47.030Z,92596.28
2022-09-12T16:46:16.397Z,92598.56
2022-09-12T16:48:49.579Z,92603.56
2022-09-12T16:51:24.438Z,92599.25
2022-09-12T16:53:51.764Z,92607.50
2022-09-12T16:56:18.819Z,92615.09
2022-09-12T16:58:46.208Z,92613.13
2022-09-12T17:01:18.969Z,92607.53
2022-09-12T17:03:45.909Z,92610.50
2022-09-12T17:06:15.250Z,92610.00
2022-09-12T17:08:43.498Z,92616.22
2022-09-12T17:11:15.935Z,92618.69
2022-09-12T17:14:03.694Z,92620.03
2022-09-12T17:16:31.194Z,92619.34
2022-09-12T17:18:58.017Z,92620.22
2022-09-12T17:21:24.680Z,92614.81
2022-09-12T17:23:51.266Z,92617.97
2022-09-12T17:26:17.803Z,92617.59
2022-09-12T17:28:44.306Z,92614.72
2022-09-12T17:31:12.969Z,92620.56
2022-09-12T17:33:40.729Z,92619.84
2022-09-12T17:36:11.063Z,92626.16
2022-09-12T17:38:39.736Z,92625.84
2022-09-12T17:41:17.754Z,92627.63
2022-09-12T17:43:52.422Z,92626.19
2022-09-12T17:46:19.662Z,92624.28
2022-09-12T17:48:54.574Z,92620.81
2022-09-12T17:51:24.528Z,92624.34
2022-09-12T17:54:02.822Z,92629.31
2022-09-12T17:56:31.575Z,92624.31
2022-09-12T17:58:59.237Z,92621.59
2022-09-12T18:01:45.328Z,92634.94
2022-09-12T18:04:12.031Z,92632.75
2022-09-12T18:06:40.061Z,92637.19
2022-09-12T18:09:09.698Z,92631.13
2022-09-12T18:11:36.616Z,92630.56
2022-09-12T18:14:03.130Z,92628.25
2022-09-12T18:16:31.346Z,92633.44
2022-09-12T18:19:03.587Z,92630.69
2022-09-12T18:21:30.267Z,92629.69
2022-09-12T18:23:59.309Z,92625.50
2022-09-12T18:26:27.391Z,92623.09
2022-09-12T18:28:54.471Z,92629.84
2022-09-12T18:31:24.021Z,92631.63
2022-09-12T18:33:51.127Z,92633.91
2022-09-12T18:36:18.920Z,92642.22
2022-09-12T18:38:46.086Z,92647.06
2022-09-12T18:41:15.330Z,92639.72
2022-09-12T18:43:41.998Z,92639.75
2022-09-12T18:46:14.231Z,92639.75
2022-09-12T18:48:41.397Z,92640.56
2022-09-12T18:51:10.153Z,92649.31
2022-09-12T18:53:37.375Z,92636.47
2022-09-12T18:56:12.308Z,92643.81
2022-09-12T18:58:40.857Z,92643.31
2022-09-12T19:01:15.189Z,92636.25
2022-09-12T19:03:42.543Z,92642.81
2022-09-12T19:06:17.562Z,92639.53
2022-09-12T19:08:45.265Z,92635.13
2022-09-12T19:11:12.714Z,92636.06
2022-09-12T19:13:41.591Z,92638.53
2022-09-12T19:16:11.100Z,92648.22
2022-09-12T19:18:39.521Z,92639.59
2022-09-12T19:21:07.732Z,92639.38
2022-09-12T19:23:35.681Z,92643.91
2022-09-12T19:26:05.329Z,92639.97
2022-09-12T19:28:32.430Z,92637.59
2022-09-12T19:30:59.205Z,92638.66
2022-09-12T19:33:25.938Z,92636.56
2022-09-12T19:35:52.472Z,92635.88
2022-09-12T19:38:19.440Z,92637.84
2022-09-12T19:40:56.768Z,92638.63
2022-09-12T19:43:23.577Z,92633.16
2022-09-12T19:45:50.055Z,92625.31
2022-09-12T19:48:16.501Z,92623.91
2022-09-12T19:50:42.955Z,92621.44
2022-09-12T19:53:09.600Z,92626.88
2022-09-12T19:55:36.646Z,92627.63
2022-09-12T19:58:03.675Z,92634.09
2022-09-12T20:00:30.156Z,92628.31
2022-09-12T20:02:56.605Z,92629.06
2022-09-12T20:05:23.085Z,92622.41
2022-09-12T20:07:49.607Z,92630.09
2022-09-12T20:10:16.140Z,92615.88
2022-09-12T20:12:42.627Z,92620.31
2022-09-12T20:15:10.145Z,92624.69
2022-09-12T20:17:36.680Z,92626.78
2022-09-12T20:20:03.938Z,92633.38
2022-09-12T20:22:30.436Z,92631.91
2022-09-12T20:24:57.134Z,92633.28
2022-09-12T20:27:23.643Z,92628.09
2022-09-12T20:29:51.133Z,92637.78
2022-09-12T20:32:18.333Z,92631.31
2022-09-12T20:34:44.851Z,92630.63
2022-09-12T20:37:11.604Z,92624.38
2022-09-12T20:39:38.225Z,92628.19
2022-09-12T20:42:04.886Z,92628.88
2022-09-12T20:44:31.382Z,92623.66
2022-09-12T20:46:58.039Z,92622.00
2022-09-12T20:49:24.657Z,92618.94
2022-09-12T20:51:51.174Z,92621.88
2022-09-12T20:54:17.670Z,92622.19
2022-09-12T20:56:44.179Z,92625.59
2022-09-12T20:59:12.117Z,92617.78
2022-09-12T21:01:38.756Z,92619.34
2022-09-12T21:04:05.630Z,92614.81
2022-09-12T21:06:32.112Z,92609.72
2022-09-12T21:08:59.749Z,92601.50
2022-09-12T21:11:27.475Z,92608.16
2022-09-12T21:13:54.862Z,92605.94
2022-09-12T21:16:22.985Z,92607.28
2022-09-12T21:18:57.877Z,92603.81
2022-09-12T21:21:24.916Z,92605.59
2022-09-12T21:23:51.474Z,92610.88
2022-09-12T21:26:18.296Z,92597.13
2022-09-12T21:28:44.743Z,92600.16
2022-09-12T21:31:11.368Z,92597.28
2022-09-12T21:33:37.951Z,92591.31
2022-09-12T21:36:05.613Z,92587.47
2022-09-12T21:38:33.021Z,92580.75
2022-09-12T21:41:10.694Z,92579.03
2022-09-12T21:43:38.198Z,92585.41
2022-09-12T21:46:05.994Z,92588.88
2022-09-12T21:48:32.963Z,92581.72
2022-09-12T21:50:59.829Z,92584.75
2022-09-12T21:53:26.494Z,92597.09
2022-09-12T21:55:53.059Z,92601.97
2022-09-12T21:58:19.646Z,92598.84
2022-09-12T22:00:46.202Z,92592.53
2022-09-12T22:03:12.786Z,92585.69
2022-09-12T22:05:43.130Z,92585.03
2022-09-12T22:08:10.981Z,92580.88
2022-09-12T22:10:38.514Z,92585.97
2022-09-12T22:13:05.411Z,92586.25
2022-09-12T22:15:40.891Z,92583.19
2022-09-12T22:18:07.787Z,92590.09
2022-09-12T22:20:34.265Z,92595.91
2022-09-12T22:23:23.810Z,92598.16
2022-09-12T22:25:54.239Z,92600.06
2022-09-12T22:28:21.290Z,92601.94
2022-09-12T22:30:48.579Z,92607.78
2022-09-12T22:33:15.345Z,92597.34
2022-09-12T22:35:42.429Z,92589.28
2022-09-12T22:38:09.172Z,92587.88
2022-09-12T22:40:35.639Z,92592.03
2022-09-12T22:43:02.366Z,92582.31
2022-09-12T22:45:28.832Z,92581.75
2022-09-12T22:47:59.174Z,92577.53
2022-09-12T22:50:27.582Z,92579.75
2022-09-12T22:52:54.101Z,92578.34
2022-09-12T22:55:20.604Z,92572.06
2022-09-12T22:57:47.187Z,92583.25
2022-09-12T23:00:14.840Z,92571.19
2022-09-12T23:02:41.452Z,92572.88
2022-09-12T23:05:08.238Z,92567.38
2022-09-12T23:07:34.699Z,92574.50
2022-09-12T23:10:01.222Z,92572.94
2022-09-12T23:12:27.786Z,92572.66
2022-09-12T23:14:54.273Z,92572.88
2022-09-12T23:17:20.775Z,92568.16
2022-09-12T23:19:47.219Z,92570.28
2022-09-12T23:22:13.944Z,92569.06
2022-09-12T23:24:40.433Z,92574.09
2022-09-12T23:27:07.090Z,92566.03
2022-09-12T23:29:35.272Z,92571.09
2022-09-12T23:32:03.541Z,92566.91
2022-09-12T23:34:30.914Z,92569.03
2022-09-12T23:36:57.477Z,92555.88
2022-09-12T23:39:23.934Z,92560.06
2022-09-12T23:41:50.507Z,92559.19
2022-09-12T23:44:16.981Z,92553.44
2022-09-12T23:46:43.484Z,92550.03
2022-09-12T23:49:10.064Z,92547.09
2022-09-12T23:51:36.605Z,92540.81
2022-09-12T23:54:03.122Z,92538.00
2022-09-12T23:56:29.676Z,92543.00
2022-09-12T23:58:56.179Z,92536.94
